Steyr, Austria
Current Conditions -  °F | °C
As of 8:20 AM on Saturday 25 Oct 2014 (Local Time) from LOWL Reporting Station
Broken Clouds Broken Clouds  
Wind Chill: 38°   Ceiling: 1200
Heat Index: 41°   Visibility: 4mi
Dew Point: 37°   Wind: 5mph
Humidity: 87%   Direction: 100°E
Pressure: 30.18"   Gusts: NA
Location:  48.04°N, 14.41°E
Report Text: LOWL 250620Z 10004KT 7000 FEW007 BKN012 05/03 Q1022 TEMPO SCT013
Loading
Personal Weather Stations






























Interactive Weather Map
Tropical Storm Tracking
New forecast layout! Learn more

10-Day Weather Forecast

Advertisements
Track Severe Weather on mobile